createdAt,value
2022-11-25T00:01:23.273Z,5.78
2022-11-25T00:03:53.776Z,16.55
2022-11-25T00:06:29.570Z,29.92
2022-11-25T00:09:08.271Z,22.08
2022-11-25T00:11:39.943Z,14.32
2022-11-25T00:14:07.936Z,11.23
2022-11-25T00:16:34.764Z,9.75
2022-11-25T00:19:01.561Z,21.63
2022-11-25T00:21:31.795Z,26.30
2022-11-25T00:24:00.837Z,13.50
2022-11-25T00:26:29.249Z,9.60
2022-11-25T00:28:58.838Z,12.40
2022-11-25T00:31:28.695Z,24.77
2022-11-25T00:33:56.387Z,18.08
2022-11-25T00:36:26.441Z,16.60
2022-11-25T00:38:58.496Z,21.77
2022-11-25T00:41:44.702Z,12.55
2022-11-25T00:44:32.085Z,9.88
2022-11-25T00:46:59.250Z,16.13
2022-11-25T00:49:26.025Z,14.50
2022-11-25T00:51:52.742Z,20.92
2022-11-25T00:54:19.563Z,17.48
2022-11-25T00:56:46.306Z,23.15
2022-11-25T00:59:13.122Z,29.95
2022-11-25T01:01:40.318Z,28.30
2022-11-25T01:04:07.544Z,24.80
2022-11-25T01:06:35.272Z,18.35
2022-11-25T01:09:02.326Z,14.70
2022-11-25T01:11:29.170Z,12.27
2022-11-25T01:14:00.866Z,18.55
2022-11-25T01:16:29.050Z,14.83
2022-11-25T01:18:55.952Z,14.32
2022-11-25T01:21:25.032Z,9.65
2022-11-25T01:23:52.979Z,13.15
2022-11-25T01:26:24.763Z,14.23
2022-11-25T01:28:57.422Z,21.98
2022-11-25T01:31:26.539Z,14.07
2022-11-25T01:34:02.185Z,36.65
2022-11-25T01:36:29.997Z,23.55
2022-11-25T01:38:59.178Z,15.27
2022-11-25T01:41:29.044Z,13.40
2022-11-25T01:44:09.705Z,18.30
2022-11-25T01:47:07.015Z,16.95
2022-11-25T01:49:46.061Z,10.10
2022-11-25T01:52:23.590Z,14.52
2022-11-25T01:54:56.929Z,13.27
2022-11-25T01:59:59.228Z,13.35
2022-11-25T02:02:26.388Z,12.57
2022-11-25T02:04:53.745Z,16.27
2022-11-25T02:07:31.452Z,14.63
2022-11-25T02:10:00.207Z,29.13
2022-11-25T02:12:28.206Z,22.63
2022-11-25T02:14:56.752Z,25.00
2022-11-25T02:17:23.820Z,30.02
2022-11-25T02:20:04.996Z,31.63
2022-11-25T02:22:56.921Z,10.75
2022-11-25T02:25:29.753Z,13.98
2022-11-25T02:28:17.227Z,22.88
2022-11-25T02:30:45.474Z,17.13
2022-11-25T02:33:12.798Z,11.77
2022-11-25T02:35:48.084Z,12.23
2022-11-25T02:38:19.087Z,14.52
2022-11-25T02:41:08.214Z,24.25
2022-11-25T02:43:35.331Z,17.10
2022-11-25T02:46:15.031Z,15.85
2022-11-25T02:49:07.919Z,13.30
2022-11-25T02:51:32.198Z,14.02
2022-11-25T02:53:59.915Z,12.68
2022-11-25T02:56:30.127Z,13.15
2022-11-25T02:58:57.226Z,11.75
2022-11-25T03:01:24.164Z,10.20
2022-11-25T03:03:51.011Z,11.80
2022-11-25T03:06:19.314Z,11.70
2022-11-25T03:08:46.086Z,10.50
2022-11-25T03:11:13.142Z,12.20
2022-11-25T03:13:40.010Z,13.18
2022-11-25T03:16:07.352Z,14.40
2022-11-25T03:18:34.701Z,11.55
2022-11-25T03:21:01.474Z,9.50
2022-11-25T03:23:28.687Z,12.93
2022-11-25T03:25:55.604Z,14.93
2022-11-25T03:28:22.329Z,12.88
2022-11-25T03:30:49.104Z,13.95
2022-11-25T03:33:15.808Z,13.18
2022-11-25T03:35:42.534Z,14.68
2022-11-25T03:38:09.292Z,16.70
2022-11-25T03:40:36.031Z,12.73
2022-11-25T03:43:02.833Z,13.23
2022-11-25T03:45:29.760Z,13.70
2022-11-25T03:47:56.514Z,11.25
2022-11-25T03:50:23.297Z,11.82
2022-11-25T03:52:50.028Z,10.98
2022-11-25T03:55:16.853Z,18.05
2022-11-25T03:57:43.715Z,24.13
2022-11-25T04:00:11.371Z,19.73
2022-11-25T04:02:38.171Z,18.85
2022-11-25T04:05:05.608Z,15.90
2022-11-25T04:07:32.614Z,17.10
2022-11-25T04:09:59.474Z,17.85
2022-11-25T04:12:44.778Z,18.10
2022-11-25T04:15:11.600Z,17.35
2022-11-25T04:17:38.518Z,12.60
2022-11-25T04:20:06.482Z,15.38
2022-11-25T04:22:33.513Z,16.77
2022-11-25T04:25:00.264Z,14.35
2022-11-25T04:27:27.019Z,13.00
2022-11-25T04:29:53.739Z,14.15
2022-11-25T04:32:20.522Z,27.40
2022-11-25T04:34:47.312Z,16.10
2022-11-25T04:37:14.069Z,27.30
2022-11-25T04:39:40.931Z,12.60
2022-11-25T04:42:26.517Z,20.92
2022-11-25T04:45:14.461Z,11.52
2022-11-25T04:47:40.358Z,20.15
2022-11-25T04:50:13.853Z,17.25
2022-11-25T04:52:40.846Z,21.23
2022-11-25T04:55:07.965Z,24.63
2022-11-25T04:57:34.783Z,13.40
2022-11-25T05:00:01.585Z,19.05
2022-11-25T05:02:28.984Z,11.43
2022-11-25T05:04:57.219Z,10.60
2022-11-25T05:07:26.086Z,14.10
2022-11-25T05:09:53.311Z,11.35
2022-11-25T05:12:24.578Z,14.98
2022-11-25T05:14:51.365Z,14.90
2022-11-25T05:17:21.239Z,13.68
2022-11-25T05:19:49.391Z,14.95
2022-11-25T05:22:19.893Z,15.02
2022-11-25T05:24:48.594Z,17.02
2022-11-25T05:27:16.219Z,14.00
2022-11-25T05:29:43.320Z,11.20
2022-11-25T05:32:10.551Z,19.10
2022-11-25T05:34:38.224Z,13.68
2022-11-25T05:37:05.654Z,16.60
2022-11-25T05:39:32.474Z,24.27
2022-11-25T05:41:59.557Z,19.95
2022-11-25T05:44:26.560Z,20.65
2022-11-25T05:46:53.493Z,37.03
2022-11-25T05:49:21.065Z,43.90
2022-11-25T05:51:48.294Z,35.50
2022-11-25T05:54:15.548Z,29.38
2022-11-25T05:56:42.358Z,43.85
2022-11-25T05:59:09.405Z,50.28
2022-11-25T06:01:36.311Z,34.15
2022-11-25T06:04:04.797Z,34.20
2022-11-25T06:06:32.168Z,16.95
2022-11-25T06:08:59.291Z,20.17
2022-11-25T06:11:26.046Z,16.55
2022-11-25T06:13:52.913Z,22.13
2022-11-25T06:16:22.784Z,16.15
2022-11-25T06:18:49.851Z,11.68
2022-11-25T06:21:17.577Z,14.13
2022-11-25T06:23:47.397Z,20.13
2022-11-25T06:26:17.464Z,16.52
2022-11-25T06:28:44.527Z,17.38
2022-11-25T06:31:18.654Z,15.63
2022-11-25T06:33:49.614Z,22.73
2022-11-25T06:36:17.360Z,17.77
2022-11-25T06:38:49.316Z,18.48
2022-11-25T06:41:17.124Z,24.80
2022-11-25T06:43:44.332Z,34.13
2022-11-25T06:46:13.809Z,24.10
2022-11-25T06:48:40.677Z,27.40
2022-11-25T06:51:10.990Z,26.80
2022-11-25T06:53:39.154Z,29.38
2022-11-25T06:56:23.685Z,35.28
2022-11-25T06:58:51.625Z,23.23
2022-11-25T07:01:20.815Z,29.58
2022-11-25T07:03:49.507Z,21.88
2022-11-25T07:06:18.096Z,18.85
2022-11-25T07:08:45.368Z,20.02
2022-11-25T07:11:18.261Z,17.45
2022-11-25T07:13:46.080Z,18.85
2022-11-25T07:16:13.700Z,14.48
2022-11-25T07:18:41.474Z,14.75
2022-11-25T07:21:30.254Z,12.85
2022-11-25T07:24:02.308Z,12.00
2022-11-25T07:26:31.745Z,13.63
2022-11-25T07:29:01.279Z,17.35
2022-11-25T07:31:34.578Z,14.85
2022-11-25T07:36:29.810Z,13.05
2022-11-25T07:38:59.033Z,15.75
2022-11-25T07:41:27.209Z,16.88
2022-11-25T07:44:00.049Z,17.08
2022-11-25T07:46:32.507Z,17.88
2022-11-25T07:49:02.023Z,21.52
2022-11-25T07:51:38.002Z,14.98
2022-11-25T07:54:07.454Z,17.25
2022-11-25T07:56:36.698Z,15.10
2022-11-25T07:59:03.606Z,18.73
2022-11-25T08:01:30.474Z,16.48
2022-11-25T08:03:57.997Z,19.65
2022-11-25T08:06:27.420Z,18.27
2022-11-25T08:08:56.402Z,15.88
2022-11-25T08:11:29.134Z,23.77
2022-11-25T08:13:56.908Z,27.85
2022-11-25T08:16:27.199Z,26.73
2022-11-25T08:18:55.186Z,30.33
2022-11-25T08:21:21.981Z,32.58
2022-11-25T08:23:49.263Z,27.17
2022-11-25T08:26:27.567Z,27.73
2022-11-25T08:28:54.760Z,28.17
2022-11-25T08:31:30.652Z,26.25
2022-11-25T08:33:58.785Z,24.40
2022-11-25T08:36:26.771Z,22.23
2022-11-25T08:38:57.633Z,27.80
2022-11-25T08:41:31.053Z,24.08
2022-11-25T08:46:29.076Z,29.17
2022-11-25T08:48:56.711Z,33.17
2022-11-25T08:51:27.882Z,27.98
2022-11-25T08:53:54.968Z,29.63
2022-11-25T08:56:26.338Z,25.70
2022-11-25T08:58:54.559Z,28.20
2022-11-25T09:01:22.802Z,20.30
2022-11-25T09:03:51.502Z,22.00
2022-11-25T09:06:19.039Z,20.17
2022-11-25T09:08:46.326Z,18.02
2022-11-25T09:11:13.877Z,20.92
2022-11-25T09:13:41.777Z,20.10
2022-11-25T09:16:17.970Z,17.15
2022-11-25T09:18:55.800Z,21.98
2022-11-25T09:21:25.079Z,22.27
2022-11-25T09:23:56.142Z,17.48
2022-11-25T09:26:29.886Z,17.48
2022-11-25T09:29:03.985Z,17.02
2022-11-25T09:31:31.106Z,16.60
2022-11-25T09:33:57.931Z,16.13
2022-11-25T09:36:25.035Z,16.73
2022-11-25T09:39:24.780Z,17.45
2022-11-25T09:42:36.690Z,17.48
2022-11-25T09:45:31.635Z,17.10
2022-11-25T09:48:43.756Z,15.40
2022-11-25T09:52:00.035Z,14.13
2022-11-25T09:54:44.014Z,16.05
2022-11-25T09:58:07.841Z,15.55
2022-11-25T10:00:43.648Z,17.30
2022-11-25T10:03:52.045Z,14.32
2022-11-25T10:06:30.254Z,13.88
2022-11-25T10:09:04.936Z,14.02
2022-11-25T10:11:46.858Z,15.35
2022-11-25T10:14:35.587Z,14.65
2022-11-25T10:17:10.167Z,13.02
2022-11-25T10:20:01.968Z,13.52
2022-11-25T10:22:41.275Z,13.57
2022-11-25T10:25:33.039Z,14.02
2022-11-25T10:28:06.765Z,15.38
2022-11-25T10:30:55.435Z,13.75
2022-11-25T10:33:30.638Z,11.13
2022-11-25T10:36:24.537Z,12.40
2022-11-25T10:39:05.191Z,10.25
2022-11-25T10:41:55.500Z,10.40
2022-11-25T10:44:34.032Z,12.75
2022-11-25T10:47:31.200Z,8.38
2022-11-25T10:50:07.576Z,8.45
2022-11-25T10:52:46.197Z,9.75
2022-11-25T10:55:16.974Z,7.82
2022-11-25T10:57:51.220Z,7.38
2022-11-25T11:00:44.493Z,5.43
2022-11-25T11:03:25.850Z,7.78
2022-11-25T11:05:55.206Z,7.30
2022-11-25T11:08:32.767Z,5.75
2022-11-25T11:11:21.810Z,5.13
2022-11-25T11:14:01.962Z,5.88
2022-11-25T11:16:35.954Z,5.78
2022-11-25T11:19:20.131Z,6.38
2022-11-25T11:21:50.471Z,4.82
2022-11-25T11:24:42.485Z,6.45
2022-11-25T11:27:18.336Z,7.13
2022-11-25T11:29:50.751Z,6.15
2022-11-25T11:32:25.479Z,6.78
2022-11-25T11:35:07.980Z,5.97
2022-11-25T11:37:42.821Z,5.80
2022-11-25T11:40:50.338Z,5.35
2022-11-25T11:43:33.964Z,7.70
2022-11-25T11:48:53.413Z,5.03
2022-11-25T11:51:40.305Z,4.82
2022-11-25T11:54:14.063Z,6.53
2022-11-25T11:56:55.593Z,5.85
2022-11-25T11:59:40.429Z,5.03
2022-11-25T12:02:22.345Z,5.80
2022-11-25T12:05:02.581Z,7.30
2022-11-25T12:07:36.702Z,5.97
2022-11-25T12:10:20.050Z,9.90
2022-11-25T12:13:04.745Z,6.68
2022-11-25T12:15:55.997Z,8.95
2022-11-25T12:18:43.827Z,8.32
2022-11-25T12:21:40.354Z,8.95
2022-11-25T12:24:37.988Z,10.35
2022-11-25T12:27:31.113Z,9.13
2022-11-25T12:30:05.418Z,9.40
2022-11-25T12:32:41.308Z,9.23
2022-11-25T12:35:49.287Z,8.02
2022-11-25T12:38:31.388Z,7.30
2022-11-25T12:41:17.600Z,10.52
2022-11-25T12:43:57.667Z,8.80
2022-11-25T12:46:27.910Z,9.55
2022-11-25T12:48:56.665Z,10.07
2022-11-25T12:51:41.018Z,12.40
2022-11-25T12:54:34.143Z,9.60
2022-11-25T12:57:44.510Z,12.13
2022-11-25T13:00:45.300Z,9.88
2022-11-25T13:03:49.924Z,13.75
2022-11-25T13:06:38.714Z,12.45
2022-11-25T13:09:23.286Z,13.55
2022-11-25T13:11:53.073Z,11.48
2022-11-25T13:15:12.053Z,15.35
2022-11-25T13:17:44.458Z,15.00
2022-11-25T13:20:29.622Z,13.52
2022-11-25T13:23:10.295Z,11.40
2022-11-25T13:25:42.349Z,11.40
2022-11-25T13:28:31.029Z,12.68
2022-11-25T13:31:25.104Z,12.05
2022-11-25T13:33:56.424Z,11.90
2022-11-25T13:36:25.662Z,15.70
2022-11-25T13:38:52.377Z,12.10
2022-11-25T13:41:34.857Z,11.65
2022-11-25T13:44:28.274Z,13.32
2022-11-25T13:46:56.771Z,11.48
2022-11-25T13:49:52.280Z,10.02
2022-11-25T13:52:18.996Z,9.30
2022-11-25T13:54:50.226Z,9.20
2022-11-25T13:57:21.934Z,13.43
2022-11-25T13:59:56.263Z,10.45
2022-11-25T14:02:28.926Z,9.63
2022-11-25T14:05:39.095Z,13.10
2022-11-25T14:08:19.249Z,12.93
2022-11-25T14:11:12.218Z,8.85
2022-11-25T14:14:08.892Z,11.82
2022-11-25T14:16:52.293Z,15.30
2022-11-25T14:19:51.970Z,12.95
2022-11-25T14:22:37.747Z,12.85
2022-11-25T14:25:26.671Z,10.10
2022-11-25T14:28:07.899Z,12.68
2022-11-25T14:30:46.630Z,10.18
2022-11-25T14:33:24.029Z,11.65
2022-11-25T14:35:55.573Z,11.63
2022-11-25T14:38:43.611Z,12.77
2022-11-25T14:41:34.866Z,13.65
2022-11-25T14:44:07.042Z,12.88
2022-11-25T14:46:33.873Z,15.15
2022-11-25T14:49:07.676Z,14.05
2022-11-25T14:51:41.566Z,11.35
2022-11-25T14:54:09.774Z,12.50
2022-11-25T14:56:37.587Z,14.35
2022-11-25T14:59:07.351Z,15.50
2022-11-25T15:01:36.126Z,13.52
2022-11-25T15:04:17.290Z,11.68
2022-11-25T15:06:52.408Z,12.15
2022-11-25T15:09:28.819Z,12.93
2022-11-25T15:12:20.421Z,12.40
2022-11-25T15:14:53.454Z,12.27
2022-11-25T15:17:33.193Z,11.25
2022-11-25T15:20:04.804Z,12.43
2022-11-25T15:22:31.905Z,11.13
2022-11-25T15:25:13.078Z,10.43
2022-11-25T15:27:45.960Z,9.80
2022-11-25T15:30:24.068Z,9.23
2022-11-25T15:32:51.918Z,9.82
2022-11-25T15:35:25.597Z,9.88
2022-11-25T15:37:54.361Z,11.95
2022-11-25T15:40:36.801Z,10.40
2022-11-25T15:43:21.684Z,10.02
2022-11-25T15:45:52.370Z,8.93
2022-11-25T15:48:46.136Z,9.65
2022-11-25T15:51:21.402Z,12.50
2022-11-25T15:54:04.641Z,9.27
2022-11-25T15:56:35.511Z,8.20
2022-11-25T15:59:02.424Z,10.45
2022-11-25T16:01:30.886Z,9.90
2022-11-25T16:04:25.558Z,9.63
2022-11-25T16:06:57.706Z,9.68
2022-11-25T16:09:25.494Z,8.15
2022-11-25T16:11:52.392Z,8.07
2022-11-25T16:14:19.918Z,10.95
2022-11-25T16:16:47.307Z,11.30
2022-11-25T16:19:25.094Z,9.73
2022-11-25T16:22:03.620Z,11.75
2022-11-25T16:24:52.363Z,10.98
2022-11-25T16:27:24.861Z,11.93
2022-11-25T16:30:05.470Z,13.10
2022-11-25T16:32:33.135Z,10.20
2022-11-25T16:35:29.290Z,13.82
2022-11-25T16:37:58.305Z,12.35
2022-11-25T16:40:27.809Z,11.27
2022-11-25T16:42:54.529Z,11.02
2022-11-25T16:45:23.978Z,10.13
2022-11-25T16:47:50.843Z,11.90
2022-11-25T16:50:20.167Z,12.23
2022-11-25T16:52:47.155Z,14.32
2022-11-25T16:55:13.965Z,13.30
2022-11-25T16:57:41.858Z,14.82
2022-11-25T17:00:16.760Z,12.90
2022-11-25T17:02:44.821Z,13.55
2022-11-25T17:05:21.548Z,18.13
2022-11-25T17:07:50.298Z,16.27
2022-11-25T17:10:18.086Z,20.98
2022-11-25T17:12:45.925Z,16.48
2022-11-25T17:15:19.224Z,13.73
2022-11-25T17:20:21.482Z,13.07
2022-11-25T17:22:48.401Z,17.23
2022-11-25T17:25:15.405Z,17.33
2022-11-25T17:27:43.155Z,15.15
2022-11-25T17:30:27.702Z,16.38
2022-11-25T17:33:06.910Z,15.00
2022-11-25T17:35:33.757Z,16.67
2022-11-25T17:38:01.199Z,14.15
2022-11-25T17:40:28.327Z,15.00
2022-11-25T17:42:55.393Z,17.08
2022-11-25T17:45:22.324Z,20.45
2022-11-25T17:47:49.649Z,17.63
2022-11-25T17:50:25.524Z,19.15
2022-11-25T17:52:52.553Z,21.80
2022-11-25T17:55:21.785Z,18.92
2022-11-25T17:57:51.846Z,20.48
2022-11-25T18:00:22.241Z,19.48
2022-11-25T18:02:49.927Z,20.02
2022-11-25T18:05:26.533Z,19.15
2022-11-25T18:07:53.383Z,18.17
2022-11-25T18:10:23.955Z,18.10
2022-11-25T18:12:53.385Z,18.70
2022-11-25T18:15:29.442Z,17.25
2022-11-25T18:18:15.023Z,14.45
2022-11-25T18:20:41.869Z,17.75
2022-11-25T18:23:09.638Z,19.17
2022-11-25T18:25:36.561Z,20.17
2022-11-25T18:28:04.783Z,18.70
2022-11-25T18:30:34.551Z,16.60
2022-11-25T18:33:01.683Z,19.38
2022-11-25T18:35:35.790Z,21.08
2022-11-25T18:38:03.642Z,18.92
2022-11-25T18:40:30.697Z,17.33
2022-11-25T18:43:01.398Z,16.65
2022-11-25T18:45:33.136Z,16.75
2022-11-25T18:48:00.055Z,22.13
2022-11-25T18:50:27.594Z,18.23
2022-11-25T18:52:54.392Z,19.02
2022-11-25T18:55:23.292Z,16.45
2022-11-25T18:57:52.045Z,16.80
2022-11-25T19:00:32.260Z,18.17
2022-11-25T19:02:59.962Z,18.77
2022-11-25T19:05:30.798Z,18.45
2022-11-25T19:07:58.233Z,20.05
2022-11-25T19:10:30.667Z,19.73
2022-11-25T19:13:02.692Z,14.98
2022-11-25T19:15:29.530Z,17.92
2022-11-25T19:17:59.331Z,16.88
2022-11-25T19:20:28.253Z,19.33
2022-11-25T19:23:00.374Z,16.27
2022-11-25T19:25:29.993Z,19.15
2022-11-25T19:27:59.947Z,18.30
2022-11-25T19:30:34.193Z,23.02
2022-11-25T19:33:02.719Z,19.40
2022-11-25T19:35:40.696Z,24.60
2022-11-25T19:38:18.174Z,18.67
2022-11-25T19:40:44.971Z,18.85
2022-11-25T19:43:13.346Z,18.35
2022-11-25T19:45:44.054Z,20.13
2022-11-25T19:48:18.006Z,20.50
2022-11-25T19:50:56.216Z,20.73
2022-11-25T19:53:23.138Z,19.75
2022-11-25T19:55:52.774Z,21.30
2022-11-25T19:58:23.939Z,19.45
2022-11-25T20:00:50.765Z,19.05
2022-11-25T20:03:24.316Z,20.73
2022-11-25T20:08:22.251Z,19.90
2022-11-25T20:10:51.258Z,19.85
2022-11-25T20:13:20.833Z,18.48
2022-11-25T20:15:50.772Z,19.88
2022-11-25T20:18:20.544Z,18.45
2022-11-25T20:20:58.447Z,21.05
2022-11-25T20:23:41.784Z,18.08
2022-11-25T20:26:31.326Z,19.95
2022-11-25T20:28:58.134Z,18.30
2022-11-25T20:31:30.209Z,16.83
2022-11-25T20:33:57.394Z,19.75
2022-11-25T20:36:31.426Z,17.73
2022-11-25T20:38:59.740Z,20.15
2022-11-25T20:41:28.298Z,18.83
2022-11-25T20:43:56.150Z,22.48
2022-11-25T20:46:26.951Z,18.92
2022-11-25T20:48:56.491Z,24.05
2022-11-25T20:51:24.549Z,24.10
2022-11-25T20:53:53.803Z,20.88
2022-11-25T20:56:25.977Z,22.58
2022-11-25T20:58:53.067Z,24.05
2022-11-25T21:01:19.973Z,20.70
2022-11-25T21:03:48.448Z,22.17
2022-11-25T21:06:25.645Z,21.02
2022-11-25T21:08:53.983Z,18.67
2022-11-25T21:11:22.638Z,22.40
2022-11-25T21:13:50.224Z,19.30
2022-11-25T21:16:17.770Z,23.60
2022-11-25T21:18:44.657Z,18.38
2022-11-25T21:21:28.529Z,16.83
2022-11-25T21:23:55.997Z,18.08
2022-11-25T21:26:25.822Z,18.95
2022-11-25T21:28:54.056Z,17.27
2022-11-25T21:31:25.294Z,21.73
2022-11-25T21:33:58.207Z,17.70
2022-11-25T21:36:30.286Z,18.35
2022-11-25T21:39:06.815Z,17.67
2022-11-25T21:41:35.194Z,19.75
2022-11-25T21:44:05.930Z,18.88
2022-11-25T21:46:32.757Z,16.85
2022-11-25T21:48:59.630Z,21.27
2022-11-25T21:51:26.396Z,18.02
2022-11-25T21:53:54.198Z,20.00
2022-11-25T21:56:39.221Z,20.20
2022-11-25T21:59:08.201Z,20.08
2022-11-25T22:01:34.978Z,21.02
2022-11-25T22:04:01.784Z,22.00
2022-11-25T22:06:30.780Z,20.45
2022-11-25T22:08:57.936Z,22.50
2022-11-25T22:11:33.036Z,23.20
2022-11-25T22:14:02.932Z,27.05
2022-11-25T22:16:32.806Z,25.83
2022-11-25T22:18:59.880Z,23.88
2022-11-25T22:21:26.755Z,27.02
2022-11-25T22:23:53.480Z,23.75
2022-11-25T22:26:33.887Z,24.88
2022-11-25T22:29:01.922Z,28.67
2022-11-25T22:31:29.425Z,22.95
2022-11-25T22:33:56.327Z,22.42
2022-11-25T22:36:25.819Z,23.60
2022-11-25T22:38:53.036Z,25.85
2022-11-25T22:41:20.376Z,25.38
2022-11-25T22:43:51.648Z,25.95
2022-11-25T22:46:18.762Z,29.05
2022-11-25T22:48:45.981Z,25.83
2022-11-25T22:51:26.045Z,31.77
2022-11-25T22:53:52.887Z,26.00
2022-11-25T22:56:20.099Z,27.88
2022-11-25T22:58:47.022Z,26.25
2022-11-25T23:01:16.425Z,25.27
2022-11-25T23:03:44.164Z,24.17
2022-11-25T23:06:13.061Z,20.73
2022-11-25T23:08:40.421Z,26.98
2022-11-25T23:11:13.539Z,23.65
2022-11-25T23:13:40.328Z,27.88
2022-11-25T23:16:07.366Z,27.92
2022-11-25T23:18:39.362Z,29.02
2022-11-25T23:21:29.093Z,27.08
2022-11-25T23:23:56.520Z,28.65
2022-11-25T23:26:23.517Z,25.75
2022-11-25T23:28:51.290Z,28.92
2022-11-25T23:31:18.378Z,29.17
2022-11-25T23:33:47.816Z,21.20
2022-11-25T23:36:18.834Z,24.60
2022-11-25T23:38:57.811Z,27.08
2022-11-25T23:41:33.565Z,25.05
2022-11-25T23:44:17.570Z,27.48
2022-11-25T23:46:45.402Z,26.50
2022-11-25T23:49:26.368Z,23.95
2022-11-25T23:51:57.058Z,22.63
2022-11-25T23:54:28.884Z,22.60
2022-11-25T23:56:55.637Z,24.83
2022-11-25T23:59:23.514Z,24.00
